<?xml version="1.0" encoding="UTF-8" standalone="no" ?>
<gpx xmlns="http://www.topografix.com/GPX/1/1" xmlns:xsi="http://www.w3.org/2001/XMLSchema-instance" xsi:schemaLocation="http://www.topografix.com/GPX/1/1 http://www.topografix.com/GPX/1/1/gpx.xsd" version="1.1" creator="VisuGPX - https://www.visugpx.com">
  <metadata>
    <name>RANDO-RAQUETTES-Langmatt-Judenhut</name>
  </metadata>
  <trk>
    <name><![CDATA[6816137-Randonnée raquette Langmatt Judenhut]]></name>
    <extensions>
      <line xmlns="http://www.topografix.com/GPX/gpx_style/0/2">
        <color>0000FF</color>
        <width>4</width>
      </line>
    </extensions>
    <trkseg>
      <trkpt lat="47.91476" lon="7.13813">
        <ele>677</ele>
        <time>2018-03-15T10:37:56Z</time>
      </trkpt>
      <trkpt lat="47.91493" lon="7.13761">
        <ele>685</ele>
        <time>2018-03-15T10:38:56Z</time>
      </trkpt>
      <trkpt lat="47.91538" lon="7.1371">
        <ele>697</ele>
        <time>2018-03-15T10:39:56Z</time>
      </trkpt>
      <trkpt lat="47.91595" lon="7.13669">
        <ele>709</ele>
        <time>2018-03-15T10:40:56Z</time>
      </trkpt>
      <trkpt lat="47.9165" lon="7.13645">
        <ele>717</ele>
        <time>2018-03-15T10:41:56Z</time>
      </trkpt>
      <trkpt lat="47.91704" lon="7.13658">
        <ele>711</ele>
        <time>2018-03-15T10:42:56Z</time>
      </trkpt>
      <trkpt lat="47.91777" lon="7.13637">
        <ele>715</ele>
        <time>2018-03-15T10:43:56Z</time>
      </trkpt>
      <trkpt lat="47.91823" lon="7.13594">
        <ele>718</ele>
        <time>2018-03-15T10:44:56Z</time>
      </trkpt>
      <trkpt lat="47.91843" lon="7.13512">
        <ele>715</ele>
        <time>2018-03-15T10:45:56Z</time>
      </trkpt>
      <trkpt lat="47.91788" lon="7.13419">
        <ele>732</ele>
        <time>2018-03-15T10:46:56Z</time>
      </trkpt>
      <trkpt lat="47.91745" lon="7.13331">
        <ele>740</ele>
        <time>2018-03-15T10:47:56Z</time>
      </trkpt>
      <trkpt lat="47.9175" lon="7.13223">
        <ele>747</ele>
        <time>2018-03-15T10:48:56Z</time>
      </trkpt>
      <trkpt lat="47.91794" lon="7.13168">
        <ele>754</ele>
        <time>2018-03-15T10:49:56Z</time>
      </trkpt>
      <trkpt lat="47.91837" lon="7.1316">
        <ele>753</ele>
        <time>2018-03-15T10:50:56Z</time>
      </trkpt>
      <trkpt lat="47.9189" lon="7.13163">
        <ele>748</ele>
        <time>2018-03-15T10:51:56Z</time>
      </trkpt>
      <trkpt lat="47.9195" lon="7.13122">
        <ele>757</ele>
        <time>2018-03-15T10:52:56Z</time>
      </trkpt>
      <trkpt lat="47.91974" lon="7.13065">
        <ele>770</ele>
        <time>2018-03-15T10:53:56Z</time>
      </trkpt>
      <trkpt lat="47.92007" lon="7.12997">
        <ele>777</ele>
        <time>2018-03-15T10:54:56Z</time>
      </trkpt>
      <trkpt lat="47.91961" lon="7.1301">
        <ele>781</ele>
        <time>2018-03-15T10:55:56Z</time>
      </trkpt>
      <trkpt lat="47.91891" lon="7.13031">
        <ele>788</ele>
        <time>2018-03-15T10:56:56Z</time>
      </trkpt>
      <trkpt lat="47.91833" lon="7.12969">
        <ele>806</ele>
        <time>2018-03-15T10:57:56Z</time>
      </trkpt>
      <trkpt lat="47.91725" lon="7.12922">
        <ele>827</ele>
        <time>2018-03-15T10:58:56Z</time>
      </trkpt>
      <trkpt lat="47.91624" lon="7.12912">
        <ele>850</ele>
        <time>2018-03-15T10:59:56Z</time>
      </trkpt>
      <trkpt lat="47.91571" lon="7.12981">
        <ele>849</ele>
        <time>2018-03-15T11:00:56Z</time>
      </trkpt>
      <trkpt lat="47.91504" lon="7.13041">
        <ele>869</ele>
        <time>2018-03-15T11:01:56Z</time>
      </trkpt>
      <trkpt lat="47.91452" lon="7.13128">
        <ele>870</ele>
        <time>2018-03-15T11:02:56Z</time>
      </trkpt>
      <trkpt lat="47.91366" lon="7.1312">
        <ele>891</ele>
        <time>2018-03-15T11:03:56Z</time>
      </trkpt>
      <trkpt lat="47.91318" lon="7.13101">
        <ele>905</ele>
        <time>2018-03-15T11:04:56Z</time>
      </trkpt>
      <trkpt lat="47.91253" lon="7.13101">
        <ele>907</ele>
        <time>2018-03-15T11:05:56Z</time>
      </trkpt>
      <trkpt lat="47.91192" lon="7.13074">
        <ele>914</ele>
        <time>2018-03-15T11:06:56Z</time>
      </trkpt>
      <trkpt lat="47.91155" lon="7.13013">
        <ele>928</ele>
        <time>2018-03-15T11:07:56Z</time>
      </trkpt>
      <trkpt lat="47.91087" lon="7.12998">
        <ele>929</ele>
        <time>2018-03-15T11:08:56Z</time>
      </trkpt>
      <trkpt lat="47.91024" lon="7.13008">
        <ele>932</ele>
        <time>2018-03-15T11:09:56Z</time>
      </trkpt>
      <trkpt lat="47.90952" lon="7.13049">
        <ele>934</ele>
        <time>2018-03-15T11:10:56Z</time>
      </trkpt>
      <trkpt lat="47.90887" lon="7.13125">
        <ele>933</ele>
        <time>2018-03-15T11:11:56Z</time>
      </trkpt>
      <trkpt lat="47.90834" lon="7.13188">
        <ele>939</ele>
        <time>2018-03-15T11:12:56Z</time>
      </trkpt>
      <trkpt lat="47.90866" lon="7.1308">
        <ele>946</ele>
        <time>2018-03-15T11:13:56Z</time>
      </trkpt>
      <trkpt lat="47.90906" lon="7.12984">
        <ele>957</ele>
        <time>2018-03-15T11:14:56Z</time>
      </trkpt>
      <trkpt lat="47.90929" lon="7.12931">
        <ele>963</ele>
        <time>2018-03-15T11:15:56Z</time>
      </trkpt>
      <trkpt lat="47.90937" lon="7.12913">
        <ele>966</ele>
        <time>2018-03-15T11:16:56Z</time>
      </trkpt>
      <trkpt lat="47.90965" lon="7.12898">
        <ele>966</ele>
        <time>2018-03-15T11:17:56Z</time>
      </trkpt>
      <trkpt lat="47.91012" lon="7.12872">
        <ele>969</ele>
        <time>2018-03-15T11:18:56Z</time>
      </trkpt>
      <trkpt lat="47.91051" lon="7.12865">
        <ele>971</ele>
        <time>2018-03-15T11:19:56Z</time>
      </trkpt>
      <trkpt lat="47.911" lon="7.12862">
        <ele>973</ele>
        <time>2018-03-15T11:20:56Z</time>
      </trkpt>
      <trkpt lat="47.91152" lon="7.12868">
        <ele>974</ele>
        <time>2018-03-15T11:21:56Z</time>
      </trkpt>
      <trkpt lat="47.91201" lon="7.12886">
        <ele>970</ele>
        <time>2018-03-15T11:22:56Z</time>
      </trkpt>
      <trkpt lat="47.9125" lon="7.12902">
        <ele>967</ele>
        <time>2018-03-15T11:23:56Z</time>
      </trkpt>
      <trkpt lat="47.91311" lon="7.12882">
        <ele>965</ele>
        <time>2018-03-15T11:24:56Z</time>
      </trkpt>
      <trkpt lat="47.91338" lon="7.12863">
        <ele>965</ele>
        <time>2018-03-15T11:25:56Z</time>
      </trkpt>
      <trkpt lat="47.91369" lon="7.12811">
        <ele>967</ele>
        <time>2018-03-15T11:26:56Z</time>
      </trkpt>
      <trkpt lat="47.91374" lon="7.1273">
        <ele>983</ele>
        <time>2018-03-15T11:27:56Z</time>
      </trkpt>
      <trkpt lat="47.91353" lon="7.12657">
        <ele>1009</ele>
        <time>2018-03-15T11:28:56Z</time>
      </trkpt>
      <trkpt lat="47.91326" lon="7.12647">
        <ele>1020</ele>
        <time>2018-03-15T11:29:56Z</time>
      </trkpt>
      <trkpt lat="47.91245" lon="7.12681">
        <ele>1032</ele>
        <time>2018-03-15T11:30:56Z</time>
      </trkpt>
      <trkpt lat="47.91211" lon="7.12697">
        <ele>1028</ele>
        <time>2018-03-15T11:31:56Z</time>
      </trkpt>
      <trkpt lat="47.91123" lon="7.1274">
        <ele>1013</ele>
        <time>2018-03-15T11:32:56Z</time>
      </trkpt>
      <trkpt lat="47.9106" lon="7.12738">
        <ele>1011</ele>
        <time>2018-03-15T11:33:56Z</time>
      </trkpt>
      <trkpt lat="47.90974" lon="7.12761">
        <ele>1003</ele>
        <time>2018-03-15T11:34:56Z</time>
      </trkpt>
      <trkpt lat="47.90907" lon="7.12791">
        <ele>994</ele>
        <time>2018-03-15T11:35:56Z</time>
      </trkpt>
      <trkpt lat="47.90835" lon="7.12836">
        <ele>978</ele>
        <time>2018-03-15T11:36:56Z</time>
      </trkpt>
      <trkpt lat="47.90813" lon="7.12862">
        <ele>974</ele>
        <time>2018-03-15T11:37:56Z</time>
      </trkpt>
      <trkpt lat="47.90798" lon="7.12889">
        <ele>970</ele>
        <time>2018-03-15T11:38:56Z</time>
      </trkpt>
      <trkpt lat="47.90792" lon="7.12936">
        <ele>968</ele>
        <time>2018-03-15T11:39:56Z</time>
      </trkpt>
      <trkpt lat="47.90784" lon="7.12986">
        <ele>968</ele>
        <time>2018-03-15T11:40:56Z</time>
      </trkpt>
      <trkpt lat="47.90782" lon="7.13033">
        <ele>965</ele>
        <time>2018-03-15T11:41:56Z</time>
      </trkpt>
      <trkpt lat="47.90786" lon="7.13083">
        <ele>959</ele>
        <time>2018-03-15T11:42:56Z</time>
      </trkpt>
      <trkpt lat="47.90789" lon="7.13158">
        <ele>952</ele>
        <time>2018-03-15T11:43:56Z</time>
      </trkpt>
      <trkpt lat="47.90796" lon="7.13236">
        <ele>943</ele>
        <time>2018-03-15T11:44:56Z</time>
      </trkpt>
      <trkpt lat="47.90821" lon="7.13308">
        <ele>928</ele>
        <time>2018-03-15T11:45:56Z</time>
      </trkpt>
      <trkpt lat="47.90828" lon="7.13357">
        <ele>921</ele>
        <time>2018-03-15T11:46:56Z</time>
      </trkpt>
      <trkpt lat="47.90839" lon="7.13454">
        <ele>908</ele>
        <time>2018-03-15T11:47:56Z</time>
      </trkpt>
      <trkpt lat="47.90822" lon="7.13511">
        <ele>903</ele>
        <time>2018-03-15T11:48:56Z</time>
      </trkpt>
      <trkpt lat="47.90789" lon="7.13554">
        <ele>899</ele>
        <time>2018-03-15T11:49:56Z</time>
      </trkpt>
      <trkpt lat="47.90755" lon="7.1359">
        <ele>897</ele>
        <time>2018-03-15T11:50:56Z</time>
      </trkpt>
      <trkpt lat="47.90736" lon="7.13655">
        <ele>897</ele>
        <time>2018-03-15T11:51:56Z</time>
      </trkpt>
      <trkpt lat="47.9076" lon="7.13726">
        <ele>890</ele>
        <time>2018-03-15T11:52:56Z</time>
      </trkpt>
      <trkpt lat="47.9077" lon="7.13755">
        <ele>886</ele>
        <time>2018-03-15T11:53:56Z</time>
      </trkpt>
      <trkpt lat="47.90782" lon="7.13805">
        <ele>882</ele>
        <time>2018-03-15T11:54:56Z</time>
      </trkpt>
      <trkpt lat="47.9079" lon="7.13865">
        <ele>882</ele>
        <time>2018-03-15T11:55:56Z</time>
      </trkpt>
      <trkpt lat="47.90812" lon="7.13906">
        <ele>877</ele>
        <time>2018-03-15T11:56:56Z</time>
      </trkpt>
      <trkpt lat="47.90846" lon="7.13952">
        <ele>872</ele>
        <time>2018-03-15T11:57:56Z</time>
      </trkpt>
      <trkpt lat="47.90889" lon="7.13975">
        <ele>861</ele>
        <time>2018-03-15T11:58:56Z</time>
      </trkpt>
      <trkpt lat="47.90944" lon="7.14026">
        <ele>857</ele>
        <time>2018-03-15T11:59:56Z</time>
      </trkpt>
      <trkpt lat="47.90955" lon="7.14032">
        <ele>855</ele>
        <time>2018-03-15T12:00:56Z</time>
      </trkpt>
      <trkpt lat="47.9098" lon="7.14041">
        <ele>851</ele>
        <time>2018-03-15T12:01:56Z</time>
      </trkpt>
      <trkpt lat="47.90991" lon="7.1403">
        <ele>846</ele>
        <time>2018-03-15T12:02:56Z</time>
      </trkpt>
      <trkpt lat="47.90958" lon="7.13982">
        <ele>841</ele>
        <time>2018-03-15T12:03:56Z</time>
      </trkpt>
      <trkpt lat="47.90901" lon="7.13896">
        <ele>835</ele>
        <time>2018-03-15T12:04:56Z</time>
      </trkpt>
      <trkpt lat="47.90889" lon="7.1387">
        <ele>835</ele>
        <time>2018-03-15T12:05:56Z</time>
      </trkpt>
      <trkpt lat="47.90905" lon="7.13871">
        <ele>828</ele>
        <time>2018-03-15T12:06:56Z</time>
      </trkpt>
      <trkpt lat="47.9094" lon="7.1388">
        <ele>817</ele>
        <time>2018-03-15T12:07:56Z</time>
      </trkpt>
      <trkpt lat="47.91002" lon="7.13888">
        <ele>801</ele>
        <time>2018-03-15T12:08:56Z</time>
      </trkpt>
      <trkpt lat="47.91039" lon="7.13896">
        <ele>793</ele>
        <time>2018-03-15T12:09:56Z</time>
      </trkpt>
      <trkpt lat="47.91085" lon="7.13911">
        <ele>784</ele>
        <time>2018-03-15T12:10:56Z</time>
      </trkpt>
      <trkpt lat="47.91149" lon="7.13929">
        <ele>775</ele>
        <time>2018-03-15T12:11:56Z</time>
      </trkpt>
      <trkpt lat="47.91205" lon="7.13942">
        <ele>765</ele>
        <time>2018-03-15T12:12:56Z</time>
      </trkpt>
      <trkpt lat="47.91261" lon="7.13956">
        <ele>754</ele>
        <time>2018-03-15T12:13:56Z</time>
      </trkpt>
      <trkpt lat="47.91303" lon="7.13975">
        <ele>746</ele>
        <time>2018-03-15T12:14:56Z</time>
      </trkpt>
      <trkpt lat="47.91277" lon="7.13944">
        <ele>745</ele>
        <time>2018-03-15T12:15:56Z</time>
      </trkpt>
      <trkpt lat="47.91245" lon="7.13908">
        <ele>745</ele>
        <time>2018-03-15T12:16:56Z</time>
      </trkpt>
      <trkpt lat="47.9122" lon="7.13877">
        <ele>742</ele>
        <time>2018-03-15T12:17:56Z</time>
      </trkpt>
      <trkpt lat="47.91259" lon="7.13881">
        <ele>732</ele>
        <time>2018-03-15T12:18:56Z</time>
      </trkpt>
      <trkpt lat="47.91316" lon="7.13914">
        <ele>722</ele>
        <time>2018-03-15T12:19:56Z</time>
      </trkpt>
      <trkpt lat="47.91367" lon="7.13955">
        <ele>719</ele>
        <time>2018-03-15T12:20:56Z</time>
      </trkpt>
      <trkpt lat="47.91395" lon="7.13992">
        <ele>721</ele>
        <time>2018-03-15T12:21:56Z</time>
      </trkpt>
      <trkpt lat="47.91431" lon="7.14013">
        <ele>716</ele>
        <time>2018-03-15T12:22:56Z</time>
      </trkpt>
      <trkpt lat="47.91452" lon="7.14053">
        <ele>722</ele>
        <time>2018-03-15T12:23:56Z</time>
      </trkpt>
      <trkpt lat="47.91469" lon="7.14076">
        <ele>725</ele>
        <time>2018-03-15T12:24:56Z</time>
      </trkpt>
      <trkpt lat="47.91492" lon="7.14066">
        <ele>715</ele>
        <time>2018-03-15T12:25:56Z</time>
      </trkpt>
      <trkpt lat="47.91553" lon="7.14053">
        <ele>697</ele>
        <time>2018-03-15T12:26:56Z</time>
      </trkpt>
      <trkpt lat="47.91603" lon="7.14055">
        <ele>685</ele>
        <time>2018-03-15T12:27:56Z</time>
      </trkpt>
      <trkpt lat="47.91568" lon="7.14017">
        <ele>679</ele>
        <time>2018-03-15T12:28:56Z</time>
      </trkpt>
      <trkpt lat="47.91538" lon="7.13992">
        <ele>677</ele>
        <time>2018-03-15T12:29:56Z</time>
      </trkpt>
      <trkpt lat="47.91519" lon="7.13943">
        <ele>669</ele>
        <time>2018-03-15T12:30:56Z</time>
      </trkpt>
      <trkpt lat="47.91502" lon="7.13926">
        <ele>669</ele>
        <time>2018-03-15T12:31:56Z</time>
      </trkpt>
      <trkpt lat="47.91443" lon="7.13885">
        <ele>682</ele>
        <time>2018-03-15T12:32:56Z</time>
      </trkpt>
      <trkpt lat="47.9146" lon="7.13837">
        <ele>675</ele>
        <time>2018-03-15T12:33:56Z</time>
        <extensions>
          <visugpx:TrkExtension xmlns:visugpx="https://www.visugpx.com/editgpx/">
            <visugpx:node>1</visugpx:node>
            </visugpx:TrkExtension>
        </extensions>
      </trkpt>
    </trkseg>
  </trk>
</gpx>